createdAt,value
2023-02-22T00:00:43.676Z,1.67
2023-02-22T00:03:27.199Z,1.66
2023-02-22T00:05:55.092Z,1.62
2023-02-22T00:08:22.726Z,1.60
2023-02-22T00:10:52.149Z,1.50
2023-02-22T00:13:19.489Z,1.39
2023-02-22T00:15:46.026Z,1.39
2023-02-22T00:18:13.254Z,1.33
2023-02-22T00:20:39.984Z,1.28
2023-02-22T00:23:09.939Z,1.16
2023-02-22T00:25:36.620Z,1.08
2023-02-22T00:28:05.061Z,0.96
2023-02-22T00:30:32.028Z,0.79
2023-02-22T00:32:58.786Z,0.78
2023-02-22T00:35:26.267Z,0.69
2023-02-22T00:37:53.402Z,0.62
2023-02-22T00:40:21.794Z,0.56
2023-02-22T00:42:48.413Z,0.58
2023-02-22T00:45:19.044Z,0.57
2023-02-22T00:47:45.573Z,0.59
2023-02-22T00:50:12.129Z,0.57
2023-02-22T00:52:38.979Z,0.53
2023-02-22T00:55:06.760Z,0.51
2023-02-22T00:57:35.264Z,0.48
2023-02-22T01:00:11.987Z,0.46
2023-02-22T01:02:39.398Z,0.41
2023-02-22T01:05:07.175Z,0.43
2023-02-22T01:07:33.773Z,0.38
2023-02-22T01:10:01.266Z,0.36
2023-02-22T01:12:28.124Z,0.33
2023-02-22T01:14:57.040Z,0.25
2023-02-22T01:17:27.063Z,0.26
2023-02-22T01:19:54.236Z,0.22
2023-02-22T01:22:21.467Z,0.21
2023-02-22T01:24:48.819Z,0.18
2023-02-22T01:27:15.513Z,0.15
2023-02-22T01:29:42.088Z,0.10
2023-02-22T01:32:08.865Z,0.06
2023-02-22T01:34:35.477Z,0.02
2023-02-22T01:37:02.001Z,0.01
2023-02-22T01:39:28.496Z,-0.09
2023-02-22T01:41:55.133Z,-0.16
2023-02-22T01:44:32.506Z,-0.17
2023-02-22T01:46:59.880Z,-0.21
2023-02-22T01:49:27.485Z,-0.26
2023-02-22T01:51:56.097Z,-0.30
2023-02-22T01:54:27.059Z,-0.36
2023-02-22T01:57:00.951Z,-0.37
2023-02-22T01:59:28.229Z,-0.35
2023-02-22T02:01:54.788Z,-0.38
2023-02-22T02:04:25.613Z,-0.42
2023-02-22T02:06:52.588Z,-0.43
2023-02-22T02:09:40.079Z,-0.46
2023-02-22T02:12:06.940Z,-0.50
2023-02-22T02:14:33.736Z,-0.58
2023-02-22T02:17:03.292Z,-0.61
2023-02-22T02:19:38.985Z,-0.63
2023-02-22T02:22:27.708Z,-0.70
2023-02-22T02:25:13.021Z,-0.79
2023-02-22T02:27:42.737Z,-0.80
2023-02-22T02:30:38.730Z,-0.75
2023-02-22T02:33:13.668Z,-0.83
2023-02-22T02:35:43.657Z,-0.89
2023-02-22T02:38:29.013Z,-0.87
2023-02-22T02:40:58.899Z,-0.85
2023-02-22T02:43:52.219Z,-0.81
2023-02-22T02:46:21.699Z,-0.81
2023-02-22T02:48:50.388Z,-0.81
2023-02-22T02:51:17.278Z,-0.82
2023-02-22T02:53:45.677Z,-0.90
2023-02-22T02:56:12.504Z,-0.93
2023-02-22T02:58:49.512Z,-0.97
2023-02-22T03:01:36.386Z,-0.94
2023-02-22T03:04:15.336Z,-0.87
2023-02-22T03:06:41.908Z,-0.88
2023-02-22T03:09:13.911Z,-0.88
2023-02-22T03:12:01.538Z,-0.86
2023-02-22T03:14:39.092Z,-0.86
2023-02-22T03:17:12.238Z,-0.92
2023-02-22T03:19:41.244Z,-0.95
2023-02-22T03:22:14.174Z,-1.01
2023-02-22T03:24:53.260Z,-1.05
2023-02-22T03:27:22.995Z,-1.13
2023-02-22T03:29:50.542Z,-1.16
2023-02-22T03:32:18.315Z,-1.23
2023-02-22T03:34:46.445Z,-1.24
2023-02-22T03:37:22.815Z,-1.28
2023-02-22T03:39:49.913Z,-1.32
2023-02-22T03:42:22.296Z,-1.35
2023-02-22T03:44:48.964Z,-1.35
2023-02-22T03:47:28.499Z,-1.32
2023-02-22T03:49:56.231Z,-1.35
2023-02-22T03:52:23.663Z,-1.33
2023-02-22T03:54:53.787Z,-1.33
2023-02-22T03:57:25.831Z,-1.33
2023-02-22T03:59:52.394Z,-1.32
2023-02-22T04:02:19.136Z,-1.34
2023-02-22T04:04:46.424Z,-1.37
2023-02-22T04:07:12.999Z,-1.36
2023-02-22T04:09:39.622Z,-1.32
2023-02-22T04:12:06.333Z,-1.32
2023-02-22T04:14:33.231Z,-1.24
2023-02-22T04:16:59.938Z,-1.19
2023-02-22T04:19:27.128Z,-1.17
2023-02-22T04:21:53.607Z,-1.16
2023-02-22T04:24:20.238Z,-1.16
2023-02-22T04:26:46.840Z,-1.08
2023-02-22T04:29:13.533Z,-1.12
2023-02-22T04:31:40.161Z,-1.17
2023-02-22T04:34:06.845Z,-1.15
2023-02-22T04:36:33.434Z,-1.19
2023-02-22T04:39:00.228Z,-1.18
2023-02-22T04:41:27.117Z,-1.21
2023-02-22T04:43:53.893Z,-1.18
2023-02-22T04:46:20.676Z,-1.19
2023-02-22T04:48:47.603Z,-1.17
2023-02-22T04:51:14.378Z,-1.16
2023-02-22T04:53:41.197Z,-1.20
2023-02-22T04:56:08.168Z,-1.19
2023-02-22T04:58:34.960Z,-1.24
2023-02-22T05:01:01.980Z,-1.28
2023-02-22T05:03:28.734Z,-1.31
2023-02-22T05:05:55.512Z,-1.37
2023-02-22T05:08:22.296Z,-1.37
2023-02-22T05:10:49.463Z,-1.36
2023-02-22T05:13:16.769Z,-1.32
2023-02-22T05:15:43.687Z,-1.38
2023-02-22T05:18:10.625Z,-1.39
2023-02-22T05:20:37.366Z,-1.40
2023-02-22T05:23:04.208Z,-1.43
2023-02-22T05:25:30.896Z,-1.40
2023-02-22T05:27:58.838Z,-1.39
2023-02-22T05:30:28.756Z,-1.42
2023-02-22T05:32:55.563Z,-1.42
2023-02-22T05:35:23.070Z,-1.42
2023-02-22T05:37:50.908Z,-1.40
2023-02-22T05:40:21.591Z,-1.40
2023-02-22T05:42:49.109Z,-1.43
2023-02-22T05:45:16.551Z,-1.43
2023-02-22T05:47:43.670Z,-1.41
2023-02-22T05:50:10.618Z,-1.42
2023-02-22T05:52:37.396Z,-1.45
2023-02-22T05:55:04.943Z,-1.48
2023-02-22T05:57:31.840Z,-1.45
2023-02-22T05:59:58.549Z,-1.46
2023-02-22T06:02:25.601Z,-1.43
2023-02-22T06:04:52.364Z,-1.39
2023-02-22T06:07:19.133Z,-1.36
2023-02-22T06:09:45.972Z,-1.30
2023-02-22T06:12:12.746Z,-1.25
2023-02-22T06:14:41.211Z,-1.22
2023-02-22T06:17:07.816Z,-1.24
2023-02-22T06:19:34.518Z,-1.27
2023-02-22T06:22:03.520Z,-1.27
2023-02-22T06:24:30.456Z,-1.28
2023-02-22T06:26:57.824Z,-1.38
2023-02-22T06:29:25.653Z,-1.30
2023-02-22T06:31:52.387Z,-1.13
2023-02-22T06:34:19.601Z,-1.06
2023-02-22T06:36:48.358Z,-1.04
2023-02-22T06:39:21.874Z,-1.08
2023-02-22T06:41:50.672Z,-1.09
2023-02-22T06:44:17.535Z,-1.12
2023-02-22T06:46:48.436Z,-1.14
2023-02-22T06:49:15.281Z,-1.10
2023-02-22T06:51:42.085Z,-1.02
2023-02-22T06:54:09.139Z,-0.80
2023-02-22T06:56:35.999Z,-0.73
2023-02-22T06:59:02.997Z,-0.66
2023-02-22T07:01:31.272Z,-0.58
2023-02-22T07:03:58.135Z,-0.55
2023-02-22T07:06:24.896Z,-0.54
2023-02-22T07:08:51.632Z,-0.53
2023-02-22T07:11:18.668Z,-0.41
2023-02-22T07:13:45.454Z,-0.24
2023-02-22T07:16:12.276Z,0.03
2023-02-22T07:18:39.009Z,0.40
2023-02-22T07:21:05.769Z,0.69
2023-02-22T07:23:32.356Z,0.93
2023-02-22T07:26:02.239Z,1.08
2023-02-22T07:28:28.853Z,1.29
2023-02-22T07:30:55.389Z,1.36
2023-02-22T07:33:22.100Z,1.43
2023-02-22T07:35:49.362Z,1.45
2023-02-22T07:38:16.928Z,1.36
2023-02-22T07:40:43.666Z,1.19
2023-02-22T07:43:16.343Z,1.41
2023-02-22T07:45:43.060Z,1.51
2023-02-22T07:48:10.433Z,1.45
2023-02-22T07:50:37.146Z,1.56
2023-02-22T07:53:05.008Z,1.76
2023-02-22T07:55:31.959Z,1.96
2023-02-22T07:57:59.582Z,1.95
2023-02-22T08:00:39.427Z,1.93
2023-02-22T08:03:08.703Z,2.00
2023-02-22T08:05:36.740Z,2.24
2023-02-22T08:08:03.612Z,2.49
2023-02-22T08:10:31.391Z,2.67
2023-02-22T08:12:58.278Z,2.67
2023-02-22T08:15:26.143Z,2.77
2023-02-22T08:17:53.788Z,2.69
2023-02-22T08:20:20.734Z,2.86
2023-02-22T08:22:47.811Z,2.93
2023-02-22T08:25:16.696Z,3.01
2023-02-22T08:27:44.243Z,3.04
2023-02-22T08:30:15.584Z,3.10
2023-02-22T08:32:42.785Z,3.17
2023-02-22T08:35:09.730Z,3.29
2023-02-22T08:37:45.706Z,3.42
2023-02-22T08:40:14.832Z,3.51
2023-02-22T08:42:41.940Z,3.59
2023-02-22T08:45:09.419Z,3.61
2023-02-22T08:47:36.386Z,3.70
2023-02-22T08:50:03.443Z,3.80
2023-02-22T08:52:30.663Z,3.93
2023-02-22T08:54:57.969Z,4.11
2023-02-22T08:57:25.086Z,4.23
2023-02-22T08:59:54.011Z,4.42
2023-02-22T09:02:21.450Z,4.52
2023-02-22T09:04:49.217Z,4.57
2023-02-22T09:07:16.767Z,4.77
2023-02-22T09:09:43.953Z,4.95
2023-02-22T09:12:10.911Z,5.29
2023-02-22T09:14:38.159Z,5.44
2023-02-22T09:17:05.935Z,5.95
2023-02-22T09:19:32.704Z,6.43
2023-02-22T09:22:02.253Z,6.88
2023-02-22T09:24:29.272Z,7.36
2023-02-22T09:26:56.606Z,7.84
2023-02-22T09:29:24.688Z,8.35
2023-02-22T09:31:52.873Z,8.83
2023-02-22T09:34:20.476Z,9.21
2023-02-22T09:36:47.902Z,9.13
2023-02-22T09:39:16.050Z,9.12
2023-02-22T09:41:52.625Z,9.02
2023-02-22T09:44:22.663Z,8.87
2023-02-22T09:46:49.714Z,8.78
2023-02-22T09:49:16.533Z,8.91
2023-02-22T09:51:50.591Z,9.09
2023-02-22T09:54:40.755Z,9.40
2023-02-22T09:57:09.025Z,9.44
2023-02-22T09:59:37.759Z,9.44
2023-02-22T10:02:25.901Z,9.52
2023-02-22T10:05:06.934Z,9.63
2023-02-22T10:07:39.729Z,10.00
2023-02-22T10:10:06.941Z,10.15
2023-02-22T10:12:40.015Z,10.03
2023-02-22T10:15:25.634Z,10.77
2023-02-22T10:18:03.795Z,11.01
2023-02-22T10:20:49.196Z,11.15
2023-02-22T10:23:28.724Z,11.49
2023-02-22T10:29:25.702Z,11.89
2023-02-22T10:35:22.773Z,13.11
2023-02-22T10:37:53.501Z,13.51
2023-02-22T10:40:23.703Z,13.71
2023-02-22T10:46:21.225Z,13.97
2023-02-22T10:52:22.865Z,13.71
2023-02-22T10:54:49.821Z,13.89
2023-02-22T10:57:18.663Z,13.95
2023-02-22T10:59:45.639Z,13.38
2023-02-22T11:02:15.718Z,13.49
2023-02-22T11:04:55.948Z,13.31
2023-02-22T11:07:25.773Z,13.27
2023-02-22T11:09:59.707Z,13.61
2023-02-22T11:12:30.000Z,13.93
2023-02-22T11:14:57.089Z,13.57
2023-02-22T11:17:32.941Z,13.75
2023-02-22T11:20:06.394Z,13.78
2023-02-22T11:22:38.067Z,13.95
2023-02-22T11:25:07.750Z,14.37
2023-02-22T11:27:34.372Z,15.01
2023-02-22T11:30:22.068Z,15.18
2023-02-22T11:32:56.821Z,15.48
2023-02-22T11:35:29.512Z,15.07
2023-02-22T11:38:16.334Z,15.32
2023-02-22T11:40:43.526Z,15.53
2023-02-22T11:43:19.939Z,15.01
2023-02-22T11:46:19.021Z,15.33
2023-02-22T11:48:59.198Z,14.69
2023-02-22T11:51:29.027Z,14.65
2023-02-22T11:53:58.710Z,14.91
2023-02-22T11:56:37.603Z,15.84
2023-02-22T11:59:39.010Z,16.99
2023-02-22T12:02:06.426Z,16.89
2023-02-22T12:04:37.783Z,15.76
2023-02-22T12:07:15.614Z,15.66
2023-02-22T12:09:51.937Z,14.57
2023-02-22T12:12:24.731Z,14.07
2023-02-22T12:15:07.829Z,13.46
2023-02-22T12:17:35.169Z,13.07
2023-02-22T12:20:07.176Z,13.15
2023-02-22T12:22:34.959Z,13.03
2023-02-22T12:25:09.342Z,13.47
2023-02-22T12:27:38.810Z,13.63
2023-02-22T12:30:07.904Z,13.93
2023-02-22T12:32:45.900Z,13.58
2023-02-22T12:35:17.692Z,13.31
2023-02-22T12:37:53.531Z,13.17
2023-02-22T12:40:24.197Z,13.16
2023-02-22T12:42:54.132Z,13.43
2023-02-22T12:45:30.309Z,13.84
2023-02-22T12:48:16.529Z,14.04
2023-02-22T12:50:43.313Z,13.98
2023-02-22T12:53:09.998Z,14.12
2023-02-22T12:55:45.823Z,14.22
2023-02-22T12:58:21.875Z,14.13
2023-02-22T13:00:49.957Z,13.97
2023-02-22T13:03:17.913Z,13.56
2023-02-22T13:05:44.633Z,13.37
2023-02-22T13:08:23.825Z,13.37
2023-02-22T13:10:56.285Z,13.24
2023-02-22T13:13:32.223Z,13.28
2023-02-22T13:16:11.308Z,13.54
2023-02-22T13:18:41.222Z,13.77
2023-02-22T13:21:14.340Z,14.01
2023-02-22T13:23:53.349Z,14.47
2023-02-22T13:26:46.302Z,15.27
2023-02-22T13:29:28.515Z,16.51
2023-02-22T13:32:14.343Z,17.70
2023-02-22T13:34:42.878Z,18.60
2023-02-22T13:40:42.228Z,19.16
2023-02-22T13:43:18.461Z,18.85
2023-02-22T13:49:37.674Z,18.09
2023-02-22T13:52:09.090Z,17.89
2023-02-22T13:54:35.758Z,17.88
2023-02-22T13:57:03.357Z,17.84
2023-02-22T13:59:29.960Z,17.75
2023-02-22T14:02:01.746Z,17.81
2023-02-22T14:04:28.500Z,17.14
2023-02-22T14:07:00.797Z,17.33
2023-02-22T14:09:49.621Z,16.47
2023-02-22T14:12:33.863Z,15.90
2023-02-22T14:15:28.146Z,16.46
2023-02-22T14:18:02.267Z,17.51
2023-02-22T14:20:35.297Z,18.54
2023-02-22T14:26:33.179Z,18.50
2023-02-22T14:29:21.144Z,18.31
2023-02-22T14:31:50.123Z,16.98
2023-02-22T14:34:17.581Z,17.06
2023-02-22T14:37:04.752Z,17.16
2023-02-22T14:39:33.589Z,16.90
2023-02-22T14:42:04.304Z,15.86
2023-02-22T14:44:34.012Z,14.97
2023-02-22T14:47:03.165Z,14.97
2023-02-22T14:49:30.682Z,14.74
2023-02-22T14:52:01.608Z,13.99
2023-02-22T14:54:39.631Z,13.58
2023-02-22T14:57:15.178Z,13.33
2023-02-22T14:59:53.679Z,13.12
2023-02-22T15:02:22.900Z,12.89
2023-02-22T15:08:13.410Z,12.71
2023-02-22T15:10:44.056Z,12.39
2023-02-22T15:13:19.853Z,12.36
2023-02-22T15:15:49.293Z,12.12
2023-02-22T15:18:22.741Z,12.09
2023-02-22T15:24:45.907Z,12.02
2023-02-22T15:30:49.142Z,11.87
2023-02-22T15:36:49.316Z,11.88
2023-02-22T15:42:46.838Z,11.60
2023-02-22T15:48:41.545Z,11.20
2023-02-22T15:54:38.071Z,10.73
2023-02-22T15:57:05.000Z,10.77
2023-02-22T15:59:35.245Z,10.78
2023-02-22T16:02:02.183Z,10.65
2023-02-22T16:05:18.720Z,10.55
2023-02-22T16:18:18.687Z,10.09
2023-02-22T16:24:28.511Z,9.76
2023-02-22T16:30:50.035Z,9.53
2023-02-22T16:33:17.006Z,9.44
2023-02-22T16:36:06.654Z,9.33
2023-02-22T16:42:10.796Z,9.04
2023-02-22T16:48:16.930Z,8.84
2023-02-22T16:50:43.906Z,8.70
2023-02-22T16:53:11.143Z,8.58
2023-02-22T16:55:45.053Z,8.43
2023-02-22T17:01:44.490Z,8.09
2023-02-22T17:11:29.321Z,7.47
2023-02-22T17:17:33.342Z,7.37
2023-02-22T17:23:34.357Z,7.44
2023-02-22T17:29:33.037Z,7.49
2023-02-22T17:35:47.938Z,7.44
2023-02-22T17:42:03.874Z,7.38
2023-02-22T17:48:05.928Z,7.39
2023-02-22T17:54:21.247Z,7.50
